Flight Track Log - Related Links

Times and Time Zones

All times are in EDT time to prevent confusion due to time zone crossing. See the JZA7657 flight status page for this flight to view local times or setup timezone preferences in your user account.


Time Position Orientation Groundspeed Altitude Reporting Facility
EDT Latitude Longitude Course Direction KTS MPH feet Rate Location/Type
Tue 09:42:51 PM 38.8667 -77.0500 330° Northwest 167 192 1,200  Level Potomac TRACON
Tue 09:43:45 PM 38.9000 -77.0833 322° Northwest 201 231 3,600 2,661 Climbing Potomac TRACON
Tue 09:44:46 PM 38.9500 -77.1500 314° West 250 288 6,300 3,165 Climbing Potomac TRACON
Tue 09:45:52 PM 39.0167 -77.2000 330° Northwest 286 329 10,300 2,862 Climbing Potomac TRACON
Tue 09:46:00 PM 39.2580 -77.2470 337° Northwest  Level FlightAware Approximate
Tue 09:47:00 PM 39.3614 -77.3044 337° Northwest  Level FlightAware Approximate
Tue 09:48:00 PM 39.4653 -77.3573 330° Northwest  Level FlightAware Approximate
Tue 09:48:01 PM 39.1828 -77.2892 337° Northwest 304 350 15,600  Level Washington Center
Tue 09:49:03 PM 39.2825 -77.3239 345° North 338 389 17,900 1,950 Climbing Washington Center
Tue 09:50:01 PM 39.3861 -77.3611 344° North 365 420 19,500 1,865 Climbing Washington Center
Tue 09:52:16 PM 39.6331 -77.4403 346° North 396 456 23,900 1,877 Climbing New York Center
Tue 09:53:16 PM 39.7497 -77.4056 13° North 402 463 25,600 1,934 Climbing New York Center
Tue 09:54:17 PM 39.8644 -77.3678 14° North 408 470 27,800 2,262 Climbing New York Center
Tue 09:55:18 PM 39.9750 -77.3267 16° North 418 481 30,200 2,331 Climbing New York Center
Tue 09:56:18 PM 40.0811 -77.2933 14° North 410 472 32,500 2,085 Climbing New York Center
Tue 09:57:16 PM 40.1833 -77.2567 15° North 390 449 34,300 1,780 Climbing New York Center
Tue 09:58:16 PM 40.2872 -77.2228 14° North 380 437 36,000 1,400 Climbing New York Center
Tue 09:59:16 PM 40.3894 -77.1858 15° North 380 437 37,100 992 Climbing New York Center
Tue 10:00:17 PM 40.4933 -77.1519 14° North 385 443 38,000 645 Climbing New York Center
Tue 10:01:17 PM 40.6017 -77.1156 14° North 385 443 38,400 496 Climbing New York Center
Tue 10:02:18 PM 40.7122 -77.0764 15° North 390 449 39,000 303 Climbing New York Center
Tue 10:03:16 PM 40.8244 -77.0403 14° North 404 465 39,000  Level New York Center
Tue 10:04:15 PM 40.9392 -77.0011 14° North 404 465 39,000  Level New York Center
Tue 10:05:16 PM 41.0494 -76.9644 14° North 404 465 39,000  Level New York Center
Tue 10:06:17 PM 41.1661 -76.9228 15° North 410 472 39,000  Level New York Center
Tue 10:07:18 PM 41.2806 -76.8864 13° North 415 478 39,000  Level New York Center
Tue 10:08:15 PM 41.3953 -76.8442 15° North 420 483 39,000  Level New York Center
Tue 10:09:16 PM 41.5122 -76.7992 16° North 425 489 39,000  Level New York Center
Tue 10:10:16 PM 41.6267 -76.7597 14° North 425 489 39,000  Level New York Center
Tue 10:12:16 PM 41.8514 -76.6797 15° North 425 489 39,000  Level New York Center
Tue 10:13:17 PM 41.9658 -76.6397 15° North 425 489 39,000  Level New York Center
Tue 10:15:38 PM 42.2514 -76.5386 15° North 439 505 39,000  Level Boston Center
Tue 10:16:38 PM 42.3486 -76.5028 15° North 422 486 39,000  Level Boston Center
Tue 10:18:00 PM 42.4864 -76.4366 15° North  Level FlightAware Approximate
Tue 10:18:38 PM 42.5786 -76.4219 15° North 422 486 39,000  Level Boston Center
Tue 10:19:38 PM 42.6906 -76.3783 16° North 422 486 39,000  Level Boston Center
Tue 10:20:38 PM 42.8047 -76.3375 15° North 422 486 39,000 -50 Level Boston Center
Tue 10:21:38 PM 42.9208 -76.2967 14° North 422 486 38,900 -50 Descending Boston Center
Tue 10:22:38 PM 43.0367 -76.2556 15° North 422 486 38,900  Level Boston Center
Tue 10:23:38 PM 43.1531 -76.2114 15° North 422 486 38,900  Level Boston Center
Tue 10:24:38 PM 43.2725 -76.1903 North 422 486 38,900  Level Boston Center
Tue 10:25:38 PM 43.3900 -76.1689 North 422 486 38,900  Level Boston Center
Tue 10:26:38 PM 43.5117 -76.1450 North 428 493 38,900  Level Boston Center
Tue 10:27:38 PM 43.6331 -76.1267 North 428 493 38,900  Level Boston Center
Tue 10:28:38 PM 43.7486 -76.1019 North 423 487 38,900  Level Boston Center
Tue 10:29:38 PM 43.8639 -76.0803 North 423 487 38,900  Level Boston Center
Tue 10:30:38 PM 43.9756 -76.0439 13° North 418 481 38,900 -350 Level Boston Center
Tue 10:31:38 PM 44.0697 -75.9628 32° Northeast 400 460 38,200 -1,700 Descending Boston Center
Tue 10:32:38 PM 44.1597 -75.8811 33° Northeast 394 453 35,500 -2,650 Descending Boston Center
Tue 10:33:38 PM 44.2519 -75.7997 32° Northeast 388 447 32,900 -2,600 Descending Boston Center
Tue 10:34:38 PM 44.3439 -75.7178 33° Northeast 388 447 30,300 -2,450 Descending Boston Center
Tue 10:35:38 PM 44.4358 -75.6325 34° Northeast 388 447 28,000 -1,150 Descending Boston Center
Tue 10:36:38 PM 44.5297 -75.5503 32° Northeast 388 447 28,000 -50 Level Boston Center
Tue 10:37:38 PM 44.6239 -75.4647 33° Northeast 388 447 27,900 -1,250 Descending Boston Center
Tue 10:38:38 PM 44.7156 -75.3789 34° Northeast 393 452 25,500 -2,436 Descending Boston Center
Tue 10:39:51 PM 44.7833 -75.2333 57° Northeast 380 437 22,500 -2,481 Descending Montreal Center
Tue 10:40:51 PM 44.8667 -75.1167 45° Northeast 370 426 20,000 -2,250 Descending Montreal Center
Tue 10:41:51 PM 44.9167 -75.0000 59° Northeast 370 426 18,000 -2,250 Descending Montreal Center
Tue 10:42:51 PM 44.9833 -74.8833 51° Northeast 360 414 15,500 -2,150 Descending Montreal Center
Tue 10:43:51 PM 45.0333 -74.7833 55° Northeast 350 403 13,700 -1,800 Descending Montreal Center
Tue 10:44:51 PM 45.0833 -74.6667 59° Northeast 340 391 11,900 -1,750 Descending Montreal Center
Tue 10:45:51 PM 45.1333 -74.5500 59° Northeast 330 380 10,200 -1,550 Descending Montreal Center
Tue 10:46:51 PM 45.1833 -74.4500 55° Northeast 300 345 8,800 -1,300 Descending Montreal Center
Tue 10:47:51 PM 45.2167 -74.3500 65° Northeast 280 322 7,600 -1,450 Descending Montreal Center
Tue 10:48:51 PM 45.2333 -74.2333 78° East 280 322 5,900 -1,400 Descending Montreal Center
Tue 10:49:51 PM 45.2667 -74.1333 65° Northeast 250 288 4,800 -950 Descending Montreal Center
Tue 10:50:51 PM 45.2500 -74.0667 110° East 220 253 4,000 -450 Descending Montreal Center
Tue 10:51:51 PM 45.2667 -73.9667 77° East 210 242 3,900 -567 Descending Montreal Center
Tue 10:53:51 PM 45.3667 -73.8667 35° Northeast 200 230 2,300 -833 Descending Montreal Center
Tue 10:54:51 PM 45.4000 -73.8167 46° Northeast 180 207 1,400 -900 Descending Montreal Center

Login

Don't have an account? Register now (free) for customized features, flight alerts, and more!